createdAt,value
2018-05-18T00:00:17.267Z,17.90
2018-05-18T00:02:44.845Z,16.30
2018-05-18T00:05:12.401Z,14.40
2018-05-18T00:07:39.961Z,16.97
2018-05-18T00:10:07.530Z,16.17
2018-05-18T00:12:35.092Z,15.43
2018-05-18T00:15:02.670Z,15.70
2018-05-18T00:20:23.301Z,16.03
2018-05-18T00:22:50.865Z,15.60
2018-05-18T00:25:19.013Z,16.37
2018-05-18T00:27:46.590Z,16.07
2018-05-18T00:30:14.160Z,17.70
2018-05-18T00:32:42.513Z,16.30
2018-05-18T00:35:10.074Z,17.47
2018-05-18T00:37:37.625Z,16.67
2018-05-18T00:40:05.240Z,16.20
2018-05-18T00:42:32.770Z,16.87
2018-05-18T00:45:00.346Z,18.13
2018-05-18T00:47:28.666Z,17.60
2018-05-18T00:49:56.229Z,16.97
2018-05-18T00:52:23.804Z,17.43
2018-05-18T00:54:51.358Z,16.03
2018-05-18T00:57:18.933Z,16.50
2018-05-18T00:59:46.490Z,17.43
2018-05-18T01:02:14.042Z,16.43
2018-05-18T01:04:41.622Z,17.50
2018-05-18T01:07:09.262Z,16.67
2018-05-18T01:09:36.787Z,16.83
2018-05-18T01:12:04.344Z,17.33
2018-05-18T01:14:31.890Z,17.83
2018-05-18T01:16:59.472Z,18.00
2018-05-18T01:19:27.023Z,18.43
2018-05-18T01:21:54.603Z,16.93
2018-05-18T01:24:22.153Z,17.00
2018-05-18T01:26:49.728Z,17.43
2018-05-18T01:29:17.273Z,16.37
2018-05-18T01:31:44.822Z,18.50
2018-05-18T01:34:12.397Z,18.43
2018-05-18T01:36:39.945Z,18.80
2018-05-18T01:39:07.541Z,18.43
2018-05-18T01:41:35.109Z,17.60
2018-05-18T01:44:02.698Z,17.30
2018-05-18T01:46:31.027Z,17.67
2018-05-18T01:48:58.565Z,17.77
2018-05-18T01:54:19.349Z,15.80
2018-05-18T01:56:47.692Z,15.80
2018-05-18T01:59:15.237Z,17.83
2018-05-18T02:01:42.781Z,16.97
2018-05-18T02:04:10.352Z,17.87
2018-05-18T02:06:37.895Z,17.97
2018-05-18T02:09:06.402Z,16.33
2018-05-18T02:11:33.965Z,17.00
2018-05-18T02:14:01.551Z,16.30
2018-05-18T02:16:29.874Z,15.07
2018-05-18T02:18:57.422Z,16.37
2018-05-18T02:21:24.986Z,16.00
2018-05-18T02:23:52.534Z,17.17
2018-05-18T02:26:20.123Z,14.80
2018-05-18T02:28:47.673Z,16.73
2018-05-18T02:34:16.054Z,14.63
2018-05-18T02:36:43.627Z,16.60
2018-05-18T02:39:11.196Z,17.07
2018-05-18T02:41:38.775Z,16.13
2018-05-18T02:44:06.363Z,14.97
2018-05-18T02:46:33.916Z,18.00
2018-05-18T02:49:02.267Z,16.17
2018-05-18T02:51:29.826Z,16.90
2018-05-18T02:53:57.407Z,15.90
2018-05-18T02:56:24.973Z,17.40
2018-05-18T02:58:53.291Z,17.17
2018-05-18T03:01:20.890Z,15.57
2018-05-18T03:03:48.446Z,16.70
2018-05-18T03:06:16.028Z,17.43
2018-05-18T03:08:43.676Z,15.90
2018-05-18T03:11:11.918Z,17.13
2018-05-18T03:13:39.490Z,17.93
2018-05-18T03:16:07.038Z,16.47
2018-05-18T03:18:34.614Z,16.83
2018-05-18T03:21:02.247Z,15.67
2018-05-18T03:23:29.734Z,17.47
2018-05-18T03:25:57.310Z,17.07
2018-05-18T03:28:24.861Z,18.07
2018-05-18T03:30:52.450Z,15.37
2018-05-18T03:33:20.773Z,15.50
2018-05-18T03:35:48.325Z,15.00
2018-05-18T03:38:15.894Z,16.10
2018-05-18T03:40:43.441Z,15.60
2018-05-18T03:43:11.003Z,14.43
2018-05-18T03:45:38.566Z,13.80
2018-05-18T03:48:06.170Z,13.40
2018-05-18T03:50:33.725Z,14.40
2018-05-18T03:53:01.811Z,13.83
2018-05-18T03:55:29.440Z,13.40
2018-05-18T04:00:50.966Z,13.20
2018-05-18T04:03:30.353Z,14.37
2018-05-18T04:06:10.650Z,15.93
2018-05-18T04:08:53.861Z,13.40
2018-05-18T04:11:21.457Z,14.93
2018-05-18T04:13:49.025Z,13.67
2018-05-18T04:16:16.575Z,14.70
2018-05-18T04:18:44.173Z,14.67
2018-05-18T04:21:12.490Z,14.33
2018-05-18T04:26:32.739Z,13.37
2018-05-18T04:29:00.324Z,15.23
2018-05-18T04:31:32.215Z,15.50
2018-05-18T04:33:59.812Z,13.80
2018-05-18T04:36:27.403Z,13.70
2018-05-18T04:38:55.720Z,13.90
2018-05-18T04:41:23.284Z,13.93
2018-05-18T04:43:50.827Z,13.60
2018-05-18T04:46:18.427Z,14.80
2018-05-18T04:48:45.998Z,15.33
2018-05-18T04:51:13.549Z,15.30
2018-05-18T04:53:41.157Z,13.83
2018-05-18T04:56:08.724Z,13.20
2018-05-18T04:58:36.272Z,12.47
2018-05-18T05:01:03.855Z,12.83
2018-05-18T05:03:31.409Z,12.77
2018-05-18T05:05:59.033Z,13.60
2018-05-18T05:08:38.791Z,13.03
2018-05-18T05:11:06.379Z,13.20
2018-05-18T05:13:34.269Z,12.27
2018-05-18T05:16:01.827Z,13.37
2018-05-18T05:18:29.405Z,12.87
2018-05-18T05:20:56.999Z,13.03
2018-05-18T05:23:24.566Z,13.03
2018-05-18T05:25:52.132Z,13.10
2018-05-18T05:28:19.685Z,13.53
2018-05-18T05:30:48.716Z,12.80
2018-05-18T05:33:16.329Z,12.57
2018-05-18T05:35:43.945Z,12.70
2018-05-18T05:38:11.540Z,12.60
2018-05-18T05:40:39.860Z,12.50
2018-05-18T05:43:07.418Z,12.90
2018-05-18T05:45:34.990Z,11.00
2018-05-18T05:48:02.681Z,11.50
2018-05-18T05:50:30.271Z,11.67
2018-05-18T05:52:57.874Z,11.83
2018-05-18T05:55:26.589Z,11.47
2018-05-18T05:58:04.696Z,11.10
2018-05-18T06:00:32.248Z,12.20
2018-05-18T06:02:59.802Z,11.10
2018-05-18T06:05:27.444Z,10.40
2018-05-18T06:07:55.046Z,10.47
2018-05-18T06:10:22.576Z,10.47
2018-05-18T06:12:50.161Z,11.03
2018-05-18T06:15:18.504Z,12.03
2018-05-18T06:17:46.053Z,10.07
2018-05-18T06:20:13.637Z,9.97
2018-05-18T06:22:41.193Z,12.90
2018-05-18T06:25:08.739Z,12.60
2018-05-18T06:27:36.340Z,12.37
2018-05-18T06:30:04.652Z,11.57
2018-05-18T06:32:32.207Z,10.60
2018-05-18T06:35:00.692Z,11.17
2018-05-18T06:37:28.986Z,12.00
2018-05-18T06:39:56.537Z,11.20
2018-05-18T06:42:24.115Z,12.57
2018-05-18T06:44:51.671Z,11.73
2018-05-18T06:47:19.230Z,12.30
2018-05-18T06:49:46.895Z,11.77
2018-05-18T06:52:14.461Z,11.63
2018-05-18T06:54:42.006Z,11.60
2018-05-18T06:57:09.582Z,12.57
2018-05-18T06:59:37.165Z,13.10
2018-05-18T07:02:08.453Z,12.70
2018-05-18T07:04:36.030Z,13.43
2018-05-18T07:07:03.595Z,12.97
2018-05-18T07:09:31.168Z,11.63
2018-05-18T07:11:58.737Z,12.53
2018-05-18T07:14:26.320Z,12.43
2018-05-18T07:16:53.945Z,13.00
2018-05-18T07:19:21.501Z,12.53
2018-05-18T07:21:49.063Z,13.60
2018-05-18T07:24:16.655Z,12.40
2018-05-18T07:26:44.975Z,13.30
2018-05-18T07:29:12.532Z,14.07
2018-05-18T07:31:40.123Z,13.77
2018-05-18T07:34:07.686Z,13.47
2018-05-18T07:36:35.239Z,12.40
2018-05-18T07:39:02.839Z,14.40
2018-05-18T07:41:30.414Z,13.97
2018-05-18T07:43:58.032Z,14.67
2018-05-18T07:46:25.576Z,13.27
2018-05-18T07:48:53.141Z,13.87
2018-05-18T07:51:20.725Z,13.90
2018-05-18T07:53:49.047Z,14.27
2018-05-18T07:56:16.606Z,14.70
2018-05-18T07:58:44.194Z,13.77
2018-05-18T08:01:11.757Z,15.03
2018-05-18T08:03:39.313Z,14.77
2018-05-18T08:06:06.919Z,13.77
2018-05-18T08:08:34.474Z,13.00
2018-05-18T08:11:02.030Z,14.10
2018-05-18T08:13:29.629Z,14.00
2018-05-18T08:15:57.217Z,12.90
2018-05-18T08:18:24.812Z,14.40
2018-05-18T08:20:53.166Z,15.07
2018-05-18T08:23:20.735Z,15.03
2018-05-18T08:25:49.064Z,15.40
2018-05-18T08:28:16.648Z,13.77
2018-05-18T08:30:55.967Z,14.30
2018-05-18T08:33:23.550Z,15.27
2018-05-18T08:35:51.097Z,13.70
2018-05-18T08:38:18.660Z,13.97
2018-05-18T08:40:56.336Z,13.40
2018-05-18T08:43:23.906Z,13.83
2018-05-18T08:45:51.473Z,15.37
2018-05-18T08:48:19.064Z,16.00
2018-05-18T08:50:47.381Z,14.03
2018-05-18T08:53:14.940Z,14.77
2018-05-18T08:55:42.518Z,14.70
2018-05-18T08:58:10.100Z,14.47
2018-05-18T09:00:37.737Z,15.73
2018-05-18T09:03:06.033Z,14.40
2018-05-18T09:05:33.599Z,13.13
2018-05-18T09:08:01.181Z,14.63
2018-05-18T09:10:29.498Z,15.50
2018-05-18T09:12:57.049Z,14.70
2018-05-18T09:15:24.633Z,16.00
2018-05-18T09:17:52.190Z,16.37
2018-05-18T09:20:19.735Z,14.93
2018-05-18T09:22:47.322Z,15.17
2018-05-18T09:25:15.018Z,15.00
2018-05-18T09:27:44.257Z,16.07
2018-05-18T09:30:11.848Z,15.00
2018-05-18T09:32:39.412Z,16.10
2018-05-18T09:35:07.037Z,15.30
2018-05-18T09:37:34.624Z,15.80
2018-05-18T09:40:02.274Z,15.33
2018-05-18T09:42:29.833Z,14.77
2018-05-18T09:44:57.918Z,14.83
2018-05-18T09:47:25.461Z,14.67
2018-05-18T09:49:53.017Z,14.50
2018-05-18T09:52:20.589Z,14.83
2018-05-18T09:54:48.612Z,15.10
2018-05-18T09:57:16.199Z,14.57
2018-05-18T09:59:50.049Z,13.33
2018-05-18T10:02:18.764Z,14.00
2018-05-18T10:04:46.852Z,13.83
2018-05-18T10:07:14.860Z,12.40
2018-05-18T10:09:42.519Z,13.50
2018-05-18T10:12:11.273Z,13.63
2018-05-18T10:14:41.902Z,13.50
2018-05-18T10:17:09.453Z,13.20
2018-05-18T10:19:37.125Z,14.43
2018-05-18T10:22:04.688Z,13.60
2018-05-18T10:24:32.270Z,13.50
2018-05-18T10:26:59.892Z,14.30
2018-05-18T10:29:28.189Z,12.90
2018-05-18T10:31:55.770Z,13.90
2018-05-18T10:34:23.326Z,12.73
2018-05-18T10:36:50.914Z,14.23
2018-05-18T10:39:19.275Z,14.10
2018-05-18T10:41:46.832Z,13.50
2018-05-18T10:44:14.394Z,13.07
2018-05-18T10:46:41.995Z,13.43
2018-05-18T10:49:09.566Z,13.93
2018-05-18T10:51:37.124Z,12.20
2018-05-18T10:54:04.705Z,12.83
2018-05-18T10:56:39.299Z,12.80
2018-05-18T10:59:06.881Z,12.63
2018-05-18T11:01:34.432Z,11.80
2018-05-18T11:04:01.976Z,12.40
2018-05-18T11:06:29.554Z,12.33
2018-05-18T11:09:00.103Z,11.13
2018-05-18T11:11:43.469Z,11.50
2018-05-18T11:14:11.346Z,12.07
2018-05-18T11:16:42.550Z,12.20
2018-05-18T11:19:10.098Z,12.50
2018-05-18T11:21:37.649Z,12.03
2018-05-18T11:24:05.221Z,11.30
2018-05-18T11:26:32.813Z,10.83
2018-05-18T11:29:12.382Z,10.47
2018-05-18T11:31:39.926Z,10.60
2018-05-18T11:34:08.238Z,10.80
2018-05-18T11:36:35.818Z,10.60
2018-05-18T11:39:12.810Z,10.47
2018-05-18T11:41:40.361Z,11.10
2018-05-18T11:44:07.924Z,10.47
2018-05-18T11:46:35.528Z,11.60
2018-05-18T11:49:03.865Z,11.70
2018-05-18T11:51:31.419Z,12.27
2018-05-18T11:53:58.974Z,12.30
2018-05-18T11:56:26.553Z,12.57
2018-05-18T11:58:54.101Z,11.13
2018-05-18T12:01:21.653Z,10.53
2018-05-18T12:03:50.158Z,11.90
2018-05-18T12:06:17.710Z,11.50
2018-05-18T12:08:45.259Z,10.60
2018-05-18T12:11:12.837Z,12.00
2018-05-18T12:13:40.388Z,11.40
2018-05-18T12:16:07.944Z,10.50
2018-05-18T12:18:35.524Z,12.20
2018-05-18T12:21:03.838Z,12.33
2018-05-18T12:23:31.422Z,13.03
2018-05-18T12:25:58.990Z,10.93
2018-05-18T12:28:26.538Z,11.50
2018-05-18T12:30:54.093Z,10.80
2018-05-18T12:33:21.665Z,11.53
2018-05-18T12:35:49.216Z,12.10
2018-05-18T12:38:16.929Z,12.10
2018-05-18T12:40:44.362Z,12.27
2018-05-18T12:43:11.911Z,10.03
2018-05-18T12:45:39.485Z,12.50
2018-05-18T12:48:07.030Z,12.20
2018-05-18T12:50:35.506Z,10.93
2018-05-18T12:53:03.077Z,10.27
2018-05-18T12:55:30.637Z,11.10
2018-05-18T12:57:58.186Z,9.57
2018-05-18T13:03:18.343Z,10.70
2018-05-18T13:05:45.918Z,10.80
2018-05-18T13:08:13.527Z,9.80
2018-05-18T13:10:41.040Z,11.27
2018-05-18T13:13:10.570Z,12.13
2018-05-18T13:15:38.213Z,10.87
2018-05-18T13:18:05.761Z,11.50
2018-05-18T13:20:33.332Z,10.67
2018-05-18T13:23:00.878Z,10.20
2018-05-18T13:25:28.424Z,10.97
2018-05-18T13:27:55.998Z,10.73
2018-05-18T13:30:24.590Z,10.70
2018-05-18T13:32:57.189Z,9.43
2018-05-18T13:35:24.741Z,9.43
2018-05-18T13:37:52.293Z,9.47
2018-05-18T13:40:19.884Z,9.97
2018-05-18T13:42:47.425Z,10.33
2018-05-18T13:45:14.981Z,11.07
2018-05-18T13:47:42.557Z,10.50
2018-05-18T13:50:10.102Z,10.17
2018-05-18T13:52:39.564Z,9.87
2018-05-18T13:55:07.141Z,10.23
2018-05-18T13:57:34.681Z,9.77
2018-05-18T14:00:02.225Z,9.70
2018-05-18T14:02:30.566Z,9.33
2018-05-18T14:04:58.113Z,8.97
2018-05-18T14:07:25.677Z,9.40
2018-05-18T14:09:53.249Z,9.60
2018-05-18T14:12:21.556Z,8.40
2018-05-18T14:14:49.869Z,10.23
2018-05-18T14:17:17.446Z,9.93
2018-05-18T14:19:45.001Z,10.17
2018-05-18T14:22:12.559Z,9.93
2018-05-18T14:24:40.137Z,8.70
2018-05-18T14:27:07.694Z,10.90
2018-05-18T14:29:35.337Z,9.97
2018-05-18T14:32:02.918Z,9.90
2018-05-18T14:34:30.469Z,7.90
2018-05-18T14:36:58.022Z,9.10
2018-05-18T14:39:25.673Z,9.10
2018-05-18T14:41:53.221Z,8.57
2018-05-18T14:44:20.794Z,9.70
2018-05-18T14:46:48.332Z,9.13
2018-05-18T14:49:15.870Z,9.90
2018-05-18T14:51:44.222Z,10.20
2018-05-18T14:54:15.521Z,9.73
2018-05-18T14:56:43.952Z,7.90
2018-05-18T14:59:11.517Z,8.57
2018-05-18T15:01:42.501Z,8.67
2018-05-18T15:04:10.070Z,9.10
2018-05-18T15:06:37.618Z,8.50
2018-05-18T15:09:06.030Z,9.20
2018-05-18T15:11:33.601Z,9.03
2018-05-18T15:14:04.895Z,9.63
2018-05-18T15:16:32.443Z,8.47
2018-05-18T15:19:06.160Z,9.43
2018-05-18T15:21:33.711Z,9.23
2018-05-18T15:24:01.260Z,9.90
2018-05-18T15:26:29.618Z,8.33
2018-05-18T15:28:57.170Z,8.63
2018-05-18T15:31:24.741Z,9.00
2018-05-18T15:33:55.354Z,8.67
2018-05-18T15:36:22.910Z,8.77
2018-05-18T15:38:50.506Z,9.00
2018-05-18T15:41:18.072Z,9.00
2018-05-18T15:43:46.387Z,7.93
2018-05-18T15:46:13.959Z,9.20
2018-05-18T15:48:44.492Z,8.07
2018-05-18T15:51:12.047Z,9.10
2018-05-18T15:53:39.625Z,8.87
2018-05-18T15:56:07.169Z,8.40
2018-05-18T15:58:34.746Z,8.77
2018-05-18T16:01:02.835Z,9.30
2018-05-18T16:03:31.155Z,9.07
2018-05-18T16:05:59.611Z,7.83
2018-05-18T16:08:27.199Z,8.43
2018-05-18T16:10:54.772Z,8.00
2018-05-18T16:13:24.256Z,9.63
2018-05-18T16:15:51.833Z,8.00
2018-05-18T16:18:19.385Z,10.70
2018-05-18T16:20:46.943Z,9.83
2018-05-18T16:23:14.534Z,10.97
2018-05-18T16:25:42.082Z,9.70
2018-05-18T16:28:09.711Z,10.67
2018-05-18T16:30:38.011Z,9.87
2018-05-18T16:33:05.562Z,9.07
2018-05-18T16:35:33.113Z,9.27
2018-05-18T16:38:06.223Z,8.70
2018-05-18T16:40:33.776Z,8.93
2018-05-18T16:43:01.350Z,9.83
2018-05-18T16:45:28.925Z,8.93
2018-05-18T16:47:56.478Z,9.07
2018-05-18T16:50:24.031Z,8.03
2018-05-18T16:52:51.664Z,8.50
2018-05-18T16:55:19.510Z,9.53
2018-05-18T16:57:47.070Z,8.63
2018-05-18T17:00:14.650Z,8.13
2018-05-18T17:02:42.209Z,8.73
2018-05-18T17:05:09.760Z,7.77
2018-05-18T17:07:37.358Z,8.80
2018-05-18T17:10:04.905Z,7.93
2018-05-18T17:12:33.300Z,8.00
2018-05-18T17:15:00.840Z,8.50
2018-05-18T17:17:28.395Z,8.83
2018-05-18T17:19:55.974Z,7.40
2018-05-18T17:22:23.551Z,8.53
2018-05-18T17:24:51.977Z,9.00
2018-05-18T17:27:19.537Z,9.13
2018-05-18T17:29:47.116Z,9.50
2018-05-18T17:32:14.673Z,9.93
2018-05-18T17:34:42.221Z,9.40
2018-05-18T17:37:09.801Z,8.23
2018-05-18T17:39:37.362Z,8.87
2018-05-18T17:42:04.913Z,8.60
2018-05-18T17:44:32.501Z,9.40
2018-05-18T17:47:00.051Z,9.20
2018-05-18T17:49:27.600Z,11.07
2018-05-18T17:51:55.165Z,10.10
2018-05-18T17:54:22.798Z,9.70
2018-05-18T17:56:51.067Z,8.63
2018-05-18T17:59:18.642Z,8.97
2018-05-18T18:01:46.962Z,9.30
2018-05-18T18:04:15.282Z,9.97
2018-05-18T18:06:42.867Z,10.07
2018-05-18T18:09:10.429Z,12.00
2018-05-18T18:11:37.991Z,11.73
2018-05-18T18:14:05.673Z,12.73
2018-05-18T18:16:33.153Z,12.57
2018-05-18T18:19:00.714Z,12.47
2018-05-18T18:21:28.309Z,13.17
2018-05-18T18:23:55.897Z,14.37
2018-05-18T18:26:23.445Z,13.30
2018-05-18T18:28:51.135Z,14.17
2018-05-18T18:31:19.890Z,13.27
2018-05-18T18:33:48.480Z,13.87
2018-05-18T18:36:16.102Z,14.00
2018-05-18T18:38:44.456Z,12.83
2018-05-18T18:41:11.990Z,13.30
2018-05-18T18:43:39.569Z,14.43
2018-05-18T18:46:07.883Z,13.10
2018-05-18T18:48:35.470Z,15.80
2018-05-18T18:51:03.022Z,15.20
2018-05-18T18:53:30.606Z,14.60
2018-05-18T18:55:58.179Z,15.07
2018-05-18T18:58:27.466Z,15.43
2018-05-18T19:00:55.044Z,16.03
2018-05-18T19:03:23.424Z,15.33
2018-05-18T19:05:51.751Z,15.37
2018-05-18T19:08:19.387Z,16.87
2018-05-18T19:10:46.923Z,15.60
2018-05-18T19:13:18.722Z,16.17
2018-05-18T19:15:46.348Z,16.90
2018-05-18T19:18:13.929Z,18.30
2018-05-18T19:20:41.488Z,16.20
2018-05-18T19:23:09.068Z,15.53
2018-05-18T19:25:36.637Z,17.57
2018-05-18T19:28:05.019Z,18.47
2018-05-18T19:30:36.238Z,16.77
2018-05-18T19:33:03.794Z,18.03
2018-05-18T19:35:31.350Z,19.10
2018-05-18T19:37:58.956Z,16.60
2018-05-18T19:40:26.509Z,17.37
2018-05-18T19:42:54.058Z,17.40
2018-05-18T19:45:21.653Z,17.40
2018-05-18T19:47:49.975Z,17.87
2018-05-18T19:50:17.528Z,17.60
2018-05-18T19:52:48.701Z,18.17
2018-05-18T19:55:16.272Z,17.60
2018-05-18T19:57:43.857Z,16.93
2018-05-18T20:00:12.210Z,16.77
2018-05-18T20:02:39.768Z,18.33
2018-05-18T20:05:07.326Z,16.90
2018-05-18T20:07:34.906Z,17.63
2018-05-18T20:10:03.225Z,17.07
2018-05-18T20:12:30.787Z,18.73
2018-05-18T20:14:58.372Z,17.80
2018-05-18T20:17:25.978Z,17.57
2018-05-18T20:19:53.499Z,16.90
2018-05-18T20:22:21.082Z,19.73
2018-05-18T20:24:49.401Z,18.93
2018-05-18T20:27:16.959Z,17.80
2018-05-18T20:29:44.544Z,19.40
2018-05-18T20:32:12.090Z,18.27
2018-05-18T20:34:39.642Z,18.77
2018-05-18T20:37:07.232Z,18.60
2018-05-18T20:39:34.783Z,17.77
2018-05-18T20:42:02.335Z,18.87
2018-05-18T20:44:29.919Z,19.70
2018-05-18T20:46:57.478Z,18.27
2018-05-18T20:49:25.039Z,19.60
2018-05-18T20:51:52.646Z,19.10
2018-05-18T20:54:20.190Z,18.07
2018-05-18T20:56:55.472Z,18.60
2018-05-18T20:59:23.031Z,17.77
2018-05-18T21:01:50.597Z,18.60
2018-05-18T21:04:18.183Z,18.80
2018-05-18T21:06:45.746Z,20.43
2018-05-18T21:09:14.075Z,18.70
2018-05-18T21:11:41.674Z,18.00
2018-05-18T21:14:09.233Z,17.27
2018-05-18T21:16:36.794Z,16.83
2018-05-18T21:19:05.348Z,17.40
2018-05-18T21:21:32.918Z,15.57
2018-05-18T21:24:00.493Z,16.33
2018-05-18T21:26:28.088Z,17.40
2018-05-18T21:28:55.656Z,16.70
2018-05-18T21:31:23.226Z,15.83
2018-05-18T21:33:50.822Z,16.40
2018-05-18T21:36:18.369Z,15.97
2018-05-18T21:38:45.930Z,17.67
2018-05-18T21:41:13.509Z,15.93
2018-05-18T21:43:41.065Z,15.83
2018-05-18T21:46:09.754Z,16.60
2018-05-18T21:48:37.330Z,15.80
2018-05-18T21:51:05.642Z,15.47
2018-05-18T21:53:33.198Z,14.70
2018-05-18T21:56:00.777Z,15.23
2018-05-18T21:58:28.348Z,15.97
2018-05-18T22:00:55.914Z,16.47
2018-05-18T22:03:23.497Z,14.90
2018-05-18T22:05:51.056Z,15.67
2018-05-18T22:08:19.410Z,15.60
2018-05-18T22:10:46.973Z,15.60
2018-05-18T22:13:14.531Z,16.90
2018-05-18T22:15:42.122Z,15.63
2018-05-18T22:18:10.444Z,16.30
2018-05-18T22:20:38.000Z,14.27
2018-05-18T22:23:05.587Z,16.63
2018-05-18T22:25:33.141Z,16.60
2018-05-18T22:28:00.709Z,15.00
2018-05-18T22:30:28.300Z,14.77
2018-05-18T22:32:56.617Z,16.10
2018-05-18T22:35:24.180Z,15.27
2018-05-18T22:37:51.769Z,15.57
2018-05-18T22:40:19.320Z,14.93
2018-05-18T22:42:46.869Z,14.77
2018-05-18T22:45:14.479Z,15.90
2018-05-18T22:47:42.798Z,16.93
2018-05-18T22:50:10.354Z,15.07
2018-05-18T22:52:37.938Z,15.93
2018-05-18T22:55:05.502Z,15.30
2018-05-18T22:57:33.065Z,15.00
2018-05-18T23:00:00.657Z,16.93
2018-05-18T23:02:28.968Z,16.13
2018-05-18T23:04:56.522Z,16.07
2018-05-18T23:07:24.112Z,16.67
2018-05-18T23:09:51.666Z,15.67
2018-05-18T23:12:19.217Z,16.10
2018-05-18T23:14:46.795Z,16.37
2018-05-18T23:17:14.359Z,16.30
2018-05-18T23:19:41.919Z,18.10
2018-05-18T23:22:09.498Z,16.20
2018-05-18T23:24:37.068Z,17.37
2018-05-18T23:27:05.383Z,17.90
2018-05-18T23:29:32.968Z,16.97
2018-05-18T23:32:00.521Z,17.03
2018-05-18T23:34:28.063Z,17.40
2018-05-18T23:36:55.643Z,16.53
2018-05-18T23:39:23.200Z,17.00
2018-05-18T23:41:50.750Z,16.40
2018-05-18T23:44:18.331Z,16.87
2018-05-18T23:47:05.139Z,17.80
2018-05-18T23:49:32.731Z,16.40
2018-05-18T23:52:00.296Z,17.37
2018-05-18T23:54:27.845Z,16.83
2018-05-18T23:56:56.194Z,17.03
2018-05-18T23:59:23.737Z,18.30
